sensor_id;sensor_type;location;lat;lon;timestamp;temperature;humidity
9808;DHT22;4943;52.550;13.462;2023-08-12T00:01:10;21.30;99.90
9808;DHT22;4943;52.550;13.462;2023-08-12T00:03:39;21.30;99.90
9808;DHT22;4943;52.550;13.462;2023-08-12T00:06:07;21.30;99.90
9808;DHT22;4943;52.550;13.462;2023-08-12T00:08:35;21.30;99.90
9808;DHT22;4943;52.550;13.462;2023-08-12T00:11:03;21.20;99.90
9808;DHT22;4943;52.550;13.462;2023-08-12T00:13:33;21.20;99.90
9808;DHT22;4943;52.550;13.462;2023-08-12T00:16:01;21.20;99.90
9808;DHT22;4943;52.550;13.462;2023-08-12T00:18:29;21.20;99.90
9808;DHT22;4943;52.550;13.462;2023-08-12T00:21:06;21.20;99.90
9808;DHT22;4943;52.550;13.462;2023-08-12T00:23:38;21.20;99.90
9808;DHT22;4943;52.550;13.462;2023-08-12T00:26:07;21.20;99.90
9808;DHT22;4943;52.550;13.462;2023-08-12T00:28:37;21.20;99.90
9808;DHT22;4943;52.550;13.462;2023-08-12T00:31:05;21.20;99.90
9808;DHT22;4943;52.550;13.462;2023-08-12T00:33:33;21.20;99.90
9808;DHT22;4943;52.550;13.462;2023-08-12T00:36:02;21.20;99.90
9808;DHT22;4943;52.550;13.462;2023-08-12T00:38:30;21.20;99.90
9808;DHT22;4943;52.550;13.462;2023-08-12T00:40:58;21.20;99.90
9808;DHT22;4943;52.550;13.462;2023-08-12T00:43:26;21.20;99.90
9808;DHT22;4943;52.550;13.462;2023-08-12T00:45:54;21.20;99.90
9808;DHT22;4943;52.550;13.462;2023-08-12T00:48:23;21.20;99.90
9808;DHT22;4943;52.550;13.462;2023-08-12T00:50:51;21.20;99.90
9808;DHT22;4943;52.550;13.462;2023-08-12T00:53:20;21.20;99.90
9808;DHT22;4943;52.550;13.462;2023-08-12T00:55:48;21.20;99.90
9808;DHT22;4943;52.550;13.462;2023-08-12T00:58:17;21.20;99.90
9808;DHT22;4943;52.550;13.462;2023-08-12T01:00:45;21.20;99.90
9808;DHT22;4943;52.550;13.462;2023-08-12T01:03:15;21.20;99.90
9808;DHT22;4943;52.550;13.462;2023-08-12T01:05:43;21.20;99.90
9808;DHT22;4943;52.550;13.462;2023-08-12T01:08:12;21.10;99.90
9808;DHT22;4943;52.550;13.462;2023-08-12T01:10:44;21.10;99.90
9808;DHT22;4943;52.550;13.462;2023-08-12T01:13:21;21.10;99.90
9808;DHT22;4943;52.550;13.462;2023-08-12T01:15:55;21.10;99.90
9808;DHT22;4943;52.550;13.462;2023-08-12T01:18:26;21.00;99.90
9808;DHT22;4943;52.550;13.462;2023-08-12T01:20:55;21.00;99.90
9808;DHT22;4943;52.550;13.462;2023-08-12T01:23:25;21.00;99.90
9808;DHT22;4943;52.550;13.462;2023-08-12T01:25:53;21.00;99.90
9808;DHT22;4943;52.550;13.462;2023-08-12T01:28:21;20.90;99.90
9808;DHT22;4943;52.550;13.462;2023-08-12T01:30:55;20.90;99.90
9808;DHT22;4943;52.550;13.462;2023-08-12T01:33:30;20.90;99.90
9808;DHT22;4943;52.550;13.462;2023-08-12T01:36:07;20.90;99.90
9808;DHT22;4943;52.550;13.462;2023-08-12T01:38:39;20.90;99.90
9808;DHT22;4943;52.550;13.462;2023-08-12T01:41:10;20.90;99.90
9808;DHT22;4943;52.550;13.462;2023-08-12T01:43:40;20.80;99.90
9808;DHT22;4943;52.550;13.462;2023-08-12T01:46:09;20.80;99.90
9808;DHT22;4943;52.550;13.462;2023-08-12T01:48:37;20.80;99.90
9808;DHT22;4943;52.550;13.462;2023-08-12T01:51:06;20.70;99.90
9808;DHT22;4943;52.550;13.462;2023-08-12T01:53:34;20.70;99.90
9808;DHT22;4943;52.550;13.462;2023-08-12T01:56:04;20.70;99.90
9808;DHT22;4943;52.550;13.462;2023-08-12T01:58:32;20.70;99.90
9808;DHT22;4943;52.550;13.462;2023-08-12T02:01:00;20.70;99.90
9808;DHT22;4943;52.550;13.462;2023-08-12T02:03:28;20.70;99.90
9808;DHT22;4943;52.550;13.462;2023-08-12T02:05:57;20.70;99.90
9808;DHT22;4943;52.550;13.462;2023-08-12T02:08:26;20.70;99.90
9808;DHT22;4943;52.550;13.462;2023-08-12T02:10:54;20.60;99.90
9808;DHT22;4943;52.550;13.462;2023-08-12T02:13:24;20.60;99.90
9808;DHT22;4943;52.550;13.462;2023-08-12T02:15:52;20.60;99.90
9808;DHT22;4943;52.550;13.462;2023-08-12T02:18:20;20.60;99.90
9808;DHT22;4943;52.550;13.462;2023-08-12T02:20:48;20.60;99.90
9808;DHT22;4943;52.550;13.462;2023-08-12T02:23:16;20.60;99.90
9808;DHT22;4943;52.550;13.462;2023-08-12T02:25:44;20.60;99.90
9808;DHT22;4943;52.550;13.462;2023-08-12T02:28:12;20.60;99.90
9808;DHT22;4943;52.550;13.462;2023-08-12T02:30:43;20.70;99.90
9808;DHT22;4943;52.550;13.462;2023-08-12T02:33:11;20.70;99.90
9808;DHT22;4943;52.550;13.462;2023-08-12T02:35:39;20.70;99.90
9808;DHT22;4943;52.550;13.462;2023-08-12T02:38:07;20.70;99.90
9808;DHT22;4943;52.550;13.462;2023-08-12T02:40:35;20.70;99.90
9808;DHT22;4943;52.550;13.462;2023-08-12T02:43:03;20.70;99.90
9808;DHT22;4943;52.550;13.462;2023-08-12T02:45:32;20.70;99.90
9808;DHT22;4943;52.550;13.462;2023-08-12T02:48:01;20.70;99.90
9808;DHT22;4943;52.550;13.462;2023-08-12T02:50:30;20.70;99.90
9808;DHT22;4943;52.550;13.462;2023-08-12T02:52:58;20.70;99.90
9808;DHT22;4943;52.550;13.462;2023-08-12T02:55:26;20.70;99.90
9808;DHT22;4943;52.550;13.462;2023-08-12T02:57:54;20.70;99.90
9808;DHT22;4943;52.550;13.462;2023-08-12T03:00:23;20.70;99.90
9808;DHT22;4943;52.550;13.462;2023-08-12T03:02:51;20.70;99.90
9808;DHT22;4943;52.550;13.462;2023-08-12T03:05:20;20.70;99.90
9808;DHT22;4943;52.550;13.462;2023-08-12T03:07:48;20.70;99.90
9808;DHT22;4943;52.550;13.462;2023-08-12T03:10:18;20.70;99.90
9808;DHT22;4943;52.550;13.462;2023-08-12T03:12:46;20.70;99.90
9808;DHT22;4943;52.550;13.462;2023-08-12T03:15:14;20.70;99.90
9808;DHT22;4943;52.550;13.462;2023-08-12T03:17:42;20.70;99.90
9808;DHT22;4943;52.550;13.462;2023-08-12T03:20:11;20.70;99.90
9808;DHT22;4943;52.550;13.462;2023-08-12T03:22:40;20.60;99.90
9808;DHT22;4943;52.550;13.462;2023-08-12T03:25:08;20.60;99.90
9808;DHT22;4943;52.550;13.462;2023-08-12T03:27:37;20.60;99.90
9808;DHT22;4943;52.550;13.462;2023-08-12T03:30:06;20.60;99.90
9808;DHT22;4943;52.550;13.462;2023-08-12T03:32:34;20.60;99.90
9808;DHT22;4943;52.550;13.462;2023-08-12T03:35:03;20.60;99.90
9808;DHT22;4943;52.550;13.462;2023-08-12T03:37:31;20.50;99.90
9808;DHT22;4943;52.550;13.462;2023-08-12T03:40:01;20.50;99.90
9808;DHT22;4943;52.550;13.462;2023-08-12T03:42:30;20.50;99.90
9808;DHT22;4943;52.550;13.462;2023-08-12T03:44:58;20.50;99.90
9808;DHT22;4943;52.550;13.462;2023-08-12T03:47:26;20.50;99.90
9808;DHT22;4943;52.550;13.462;2023-08-12T03:49:54;20.50;99.90
9808;DHT22;4943;52.550;13.462;2023-08-12T03:52:22;20.50;99.90
9808;DHT22;4943;52.550;13.462;2023-08-12T03:54:50;20.50;99.90
9808;DHT22;4943;52.550;13.462;2023-08-12T03:57:21;20.40;99.90
9808;DHT22;4943;52.550;13.462;2023-08-12T03:59:49;20.40;99.90
9808;DHT22;4943;52.550;13.462;2023-08-12T04:02:17;20.50;99.90
9808;DHT22;4943;52.550;13.462;2023-08-12T04:04:45;20.40;99.90
9808;DHT22;4943;52.550;13.462;2023-08-12T04:07:13;20.50;99.90
9808;DHT22;4943;52.550;13.462;2023-08-12T04:09:41;20.40;99.90
9808;DHT22;4943;52.550;13.462;2023-08-12T04:12:09;20.40;99.90
9808;DHT22;4943;52.550;13.462;2023-08-12T04:14:39;20.50;99.90
9808;DHT22;4943;52.550;13.462;2023-08-12T04:17:07;20.50;99.90
9808;DHT22;4943;52.550;13.462;2023-08-12T04:19:36;20.50;99.90
9808;DHT22;4943;52.550;13.462;2023-08-12T04:22:04;20.50;99.90
9808;DHT22;4943;52.550;13.462;2023-08-12T04:24:32;20.50;99.90
9808;DHT22;4943;52.550;13.462;2023-08-12T04:27:00;20.50;99.90
9808;DHT22;4943;52.550;13.462;2023-08-12T04:29:28;20.50;99.90
9808;DHT22;4943;52.550;13.462;2023-08-12T04:31:58;20.60;99.90
9808;DHT22;4943;52.550;13.462;2023-08-12T04:34:26;20.60;99.90
9808;DHT22;4943;52.550;13.462;2023-08-12T04:36:55;20.70;99.90
9808;DHT22;4943;52.550;13.462;2023-08-12T04:39:23;20.70;99.90
9808;DHT22;4943;52.550;13.462;2023-08-12T04:41:51;20.70;99.90
9808;DHT22;4943;52.550;13.462;2023-08-12T04:44:20;20.80;99.90
9808;DHT22;4943;52.550;13.462;2023-08-12T04:46:48;20.80;99.90
9808;DHT22;4943;52.550;13.462;2023-08-12T04:49:18;20.80;99.90
9808;DHT22;4943;52.550;13.462;2023-08-12T04:51:47;20.90;99.90
9808;DHT22;4943;52.550;13.462;2023-08-12T04:54:15;20.90;99.90
9808;DHT22;4943;52.550;13.462;2023-08-12T04:56:43;20.90;99.90
9808;DHT22;4943;52.550;13.462;2023-08-12T04:59:11;21.00;99.90
9808;DHT22;4943;52.550;13.462;2023-08-12T05:01:39;21.10;99.90
9808;DHT22;4943;52.550;13.462;2023-08-12T05:04:29;21.10;99.90
9808;DHT22;4943;52.550;13.462;2023-08-12T05:06:57;21.20;99.90
9808;DHT22;4943;52.550;13.462;2023-08-12T05:09:25;21.30;99.90
9808;DHT22;4943;52.550;13.462;2023-08-12T05:11:53;21.40;99.90
9808;DHT22;4943;52.550;13.462;2023-08-12T05:14:22;21.50;99.90
9808;DHT22;4943;52.550;13.462;2023-08-12T05:16:50;21.60;99.90
9808;DHT22;4943;52.550;13.462;2023-08-12T05:19:18;21.70;99.90
9808;DHT22;4943;52.550;13.462;2023-08-12T05:21:47;21.80;99.90
9808;DHT22;4943;52.550;13.462;2023-08-12T05:24:15;21.90;99.90
9808;DHT22;4943;52.550;13.462;2023-08-12T05:26:43;22.00;99.90
9808;DHT22;4943;52.550;13.462;2023-08-12T05:29:11;22.10;99.90
9808;DHT22;4943;52.550;13.462;2023-08-12T05:31:39;22.30;99.90
9808;DHT22;4943;52.550;13.462;2023-08-12T05:34:08;22.40;99.90
9808;DHT22;4943;52.550;13.462;2023-08-12T05:36:36;22.50;99.90
9808;DHT22;4943;52.550;13.462;2023-08-12T05:39:06;22.60;99.90
9808;DHT22;4943;52.550;13.462;2023-08-12T05:41:34;22.70;99.90
9808;DHT22;4943;52.550;13.462;2023-08-12T05:44:02;22.80;99.90
9808;DHT22;4943;52.550;13.462;2023-08-12T05:46:30;22.90;99.90
9808;DHT22;4943;52.550;13.462;2023-08-12T05:48:58;23.00;99.90
9808;DHT22;4943;52.550;13.462;2023-08-12T05:51:27;23.00;99.90
9808;DHT22;4943;52.550;13.462;2023-08-12T05:53:56;23.00;99.90
9808;DHT22;4943;52.550;13.462;2023-08-12T05:56:26;23.00;99.90
9808;DHT22;4943;52.550;13.462;2023-08-12T05:58:54;23.00;99.90
9808;DHT22;4943;52.550;13.462;2023-08-12T06:01:22;23.00;99.90
9808;DHT22;4943;52.550;13.462;2023-08-12T06:03:50;23.00;99.90
9808;DHT22;4943;52.550;13.462;2023-08-12T06:06:18;23.00;99.90
9808;DHT22;4943;52.550;13.462;2023-08-12T06:08:46;23.00;99.90
9808;DHT22;4943;52.550;13.462;2023-08-12T06:11:15;23.10;99.90
9808;DHT22;4943;52.550;13.462;2023-08-12T06:13:44;23.10;99.90
9808;DHT22;4943;52.550;13.462;2023-08-12T06:16:12;23.20;99.90
9808;DHT22;4943;52.550;13.462;2023-08-12T06:18:40;23.20;99.90
9808;DHT22;4943;52.550;13.462;2023-08-12T06:21:09;23.30;99.90
9808;DHT22;4943;52.550;13.462;2023-08-12T06:23:37;23.40;99.90
9808;DHT22;4943;52.550;13.462;2023-08-12T06:26:05;23.40;99.90
9808;DHT22;4943;52.550;13.462;2023-08-12T06:28:33;23.50;99.90
9808;DHT22;4943;52.550;13.462;2023-08-12T06:31:02;23.60;99.90
9808;DHT22;4943;52.550;13.462;2023-08-12T06:33:31;23.70;99.90
9808;DHT22;4943;52.550;13.462;2023-08-12T06:35:59;23.80;99.90
9808;DHT22;4943;52.550;13.462;2023-08-12T06:38:27;23.80;99.90
9808;DHT22;4943;52.550;13.462;2023-08-12T06:40:55;23.80;99.90
9808;DHT22;4943;52.550;13.462;2023-08-12T06:43:23;23.90;99.90
9808;DHT22;4943;52.550;13.462;2023-08-12T06:45:55;23.90;99.90
9808;DHT22;4943;52.550;13.462;2023-08-12T06:48:25;23.90;99.90
9808;DHT22;4943;52.550;13.462;2023-08-12T06:50:53;23.90;99.90
9808;DHT22;4943;52.550;13.462;2023-08-12T06:53:22;23.90;99.90
9808;DHT22;4943;52.550;13.462;2023-08-12T06:55:51;23.80;99.90
9808;DHT22;4943;52.550;13.462;2023-08-12T06:58:19;23.80;99.90
9808;DHT22;4943;52.550;13.462;2023-08-12T07:00:48;23.90;99.90
9808;DHT22;4943;52.550;13.462;2023-08-12T07:03:16;23.90;99.90
9808;DHT22;4943;52.550;13.462;2023-08-12T07:05:45;24.00;99.90
9808;DHT22;4943;52.550;13.462;2023-08-12T07:08:13;24.10;99.90
9808;DHT22;4943;52.550;13.462;2023-08-12T07:10:41;24.20;99.90
9808;DHT22;4943;52.550;13.462;2023-08-12T07:13:10;24.30;99.90
9808;DHT22;4943;52.550;13.462;2023-08-12T07:15:38;24.40;99.90
9808;DHT22;4943;52.550;13.462;2023-08-12T07:18:06;24.50;99.90
9808;DHT22;4943;52.550;13.462;2023-08-12T07:20:34;24.60;99.90
9808;DHT22;4943;52.550;13.462;2023-08-12T07:23:04;24.70;99.90
9808;DHT22;4943;52.550;13.462;2023-08-12T07:25:32;24.70;99.90
9808;DHT22;4943;52.550;13.462;2023-08-12T07:28:00;24.70;99.90
9808;DHT22;4943;52.550;13.462;2023-08-12T07:30:28;24.70;99.90
9808;DHT22;4943;52.550;13.462;2023-08-12T07:32:56;24.70;99.90
9808;DHT22;4943;52.550;13.462;2023-08-12T07:35:24;24.70;99.90
9808;DHT22;4943;52.550;13.462;2023-08-12T07:37:52;24.80;99.90
9808;DHT22;4943;52.550;13.462;2023-08-12T07:40:22;24.90;99.90
9808;DHT22;4943;52.550;13.462;2023-08-12T07:42:50;25.00;99.90
9808;DHT22;4943;52.550;13.462;2023-08-12T07:45:18;25.20;99.90
9808;DHT22;4943;52.550;13.462;2023-08-12T07:47:46;25.30;99.90
9808;DHT22;4943;52.550;13.462;2023-08-12T07:50:14;25.50;99.90
9808;DHT22;4943;52.550;13.462;2023-08-12T07:52:42;25.60;99.90
9808;DHT22;4943;52.550;13.462;2023-08-12T07:55:10;25.80;99.90
9808;DHT22;4943;52.550;13.462;2023-08-12T07:57:40;25.90;99.90
9808;DHT22;4943;52.550;13.462;2023-08-12T08:00:09;26.10;99.90
9808;DHT22;4943;52.550;13.462;2023-08-12T08:02:38;26.20;99.90
9808;DHT22;4943;52.550;13.462;2023-08-12T08:05:07;26.30;99.90
9808;DHT22;4943;52.550;13.462;2023-08-12T08:07:36;26.40;99.90
9808;DHT22;4943;52.550;13.462;2023-08-12T08:10:05;26.40;99.90
9808;DHT22;4943;52.550;13.462;2023-08-12T08:12:33;26.40;99.90
9808;DHT22;4943;52.550;13.462;2023-08-12T08:15:03;26.30;99.90
9808;DHT22;4943;52.550;13.462;2023-08-12T08:17:31;26.30;99.90
9808;DHT22;4943;52.550;13.462;2023-08-12T08:20:05;26.20;99.90
9808;DHT22;4943;52.550;13.462;2023-08-12T08:22:33;26.20;99.90
9808;DHT22;4943;52.550;13.462;2023-08-12T08:25:01;26.20;99.90
9808;DHT22;4943;52.550;13.462;2023-08-12T08:27:29;26.20;99.90
9808;DHT22;4943;52.550;13.462;2023-08-12T08:29:58;26.10;99.90
9808;DHT22;4943;52.550;13.462;2023-08-12T08:32:28;26.10;99.90
9808;DHT22;4943;52.550;13.462;2023-08-12T08:34:56;26.10;99.90
9808;DHT22;4943;52.550;13.462;2023-08-12T08:37:24;26.00;99.90
9808;DHT22;4943;52.550;13.462;2023-08-12T08:39:52;25.90;99.90
9808;DHT22;4943;52.550;13.462;2023-08-12T08:42:21;25.90;99.90
9808;DHT22;4943;52.550;13.462;2023-08-12T08:44:53;25.70;99.90
9808;DHT22;4943;52.550;13.462;2023-08-12T08:47:27;25.60;99.90
9808;DHT22;4943;52.550;13.462;2023-08-12T08:49:56;25.60;99.90
9808;DHT22;4943;52.550;13.462;2023-08-12T08:52:24;25.50;99.90
9808;DHT22;4943;52.550;13.462;2023-08-12T08:54:53;25.50;99.90
9808;DHT22;4943;52.550;13.462;2023-08-12T08:57:21;25.50;99.90
9808;DHT22;4943;52.550;13.462;2023-08-12T09:00:07;25.50;99.90
9808;DHT22;4943;52.550;13.462;2023-08-12T09:02:41;25.60;99.90
9808;DHT22;4943;52.550;13.462;2023-08-12T09:05:11;25.60;99.90
9808;DHT22;4943;52.550;13.462;2023-08-12T09:07:42;25.60;99.90
9808;DHT22;4943;52.550;13.462;2023-08-12T09:10:11;25.60;99.90
9808;DHT22;4943;52.550;13.462;2023-08-12T09:12:42;25.60;99.90
9808;DHT22;4943;52.550;13.462;2023-08-12T09:15:10;25.70;99.90
9808;DHT22;4943;52.550;13.462;2023-08-12T09:17:40;25.80;99.90
9808;DHT22;4943;52.550;13.462;2023-08-12T09:20:08;25.90;99.90
9808;DHT22;4943;52.550;13.462;2023-08-12T09:22:40;26.00;99.90
9808;DHT22;4943;52.550;13.462;2023-08-12T09:25:09;26.10;99.90
9808;DHT22;4943;52.550;13.462;2023-08-12T09:27:38;26.20;99.90
9808;DHT22;4943;52.550;13.462;2023-08-12T09:30:07;26.30;99.90
9808;DHT22;4943;52.550;13.462;2023-08-12T09:32:36;26.30;99.90
9808;DHT22;4943;52.550;13.462;2023-08-12T09:35:15;26.40;99.90
9808;DHT22;4943;52.550;13.462;2023-08-12T09:37:44;26.60;99.90
9808;DHT22;4943;52.550;13.462;2023-08-12T09:40:13;26.70;99.90
9808;DHT22;4943;52.550;13.462;2023-08-12T09:42:45;26.90;99.90
9808;DHT22;4943;52.550;13.462;2023-08-12T09:45:14;27.10;99.90
9808;DHT22;4943;52.550;13.462;2023-08-12T09:47:42;27.30;99.90
9808;DHT22;4943;52.550;13.462;2023-08-12T09:50:12;27.40;99.90
9808;DHT22;4943;52.550;13.462;2023-08-12T09:52:41;27.40;99.90
9808;DHT22;4943;52.550;13.462;2023-08-12T09:55:11;27.40;99.90
9808;DHT22;4943;52.550;13.462;2023-08-12T09:57:42;27.40;99.90
9808;DHT22;4943;52.550;13.462;2023-08-12T10:00:12;27.40;99.90
9808;DHT22;4943;52.550;13.462;2023-08-12T10:02:44;27.40;99.90
9808;DHT22;4943;52.550;13.462;2023-08-12T10:05:17;27.40;99.90
9808;DHT22;4943;52.550;13.462;2023-08-12T10:07:47;27.50;99.90
9808;DHT22;4943;52.550;13.462;2023-08-12T10:10:16;27.60;99.90
9808;DHT22;4943;52.550;13.462;2023-08-12T10:12:45;27.70;99.90
9808;DHT22;4943;52.550;13.462;2023-08-12T10:15:14;27.80;99.90
9808;DHT22;4943;52.550;13.462;2023-08-12T10:17:43;27.80;99.90
9808;DHT22;4943;52.550;13.462;2023-08-12T10:20:19;27.80;99.90
9808;DHT22;4943;52.550;13.462;2023-08-12T10:22:48;27.90;99.90
9808;DHT22;4943;52.550;13.462;2023-08-12T10:25:18;27.80;99.90
9808;DHT22;4943;52.550;13.462;2023-08-12T10:27:48;27.70;99.90
9808;DHT22;4943;52.550;13.462;2023-08-12T10:30:17;27.70;99.90
9808;DHT22;4943;52.550;13.462;2023-08-12T10:32:46;27.70;99.90
9808;DHT22;4943;52.550;13.462;2023-08-12T10:35:16;27.80;99.90
9808;DHT22;4943;52.550;13.462;2023-08-12T10:37:48;27.90;99.90
9808;DHT22;4943;52.550;13.462;2023-08-12T10:40:22;28.00;99.90
9808;DHT22;4943;52.550;13.462;2023-08-12T10:42:50;28.10;99.90
9808;DHT22;4943;52.550;13.462;2023-08-12T10:45:19;28.20;99.90
9808;DHT22;4943;52.550;13.462;2023-08-12T10:48:11;28.30;99.90
9808;DHT22;4943;52.550;13.462;2023-08-12T10:50:45;28.30;99.90
9808;DHT22;4943;52.550;13.462;2023-08-12T10:53:23;28.50;99.90
9808;DHT22;4943;52.550;13.462;2023-08-12T10:55:57;28.60;99.90
9808;DHT22;4943;52.550;13.462;2023-08-12T10:58:27;28.70;99.90
9808;DHT22;4943;52.550;13.462;2023-08-12T11:00:57;28.70;99.90
9808;DHT22;4943;52.550;13.462;2023-08-12T11:03:25;28.90;99.90
9808;DHT22;4943;52.550;13.462;2023-08-12T11:05:55;28.90;99.90
9808;DHT22;4943;52.550;13.462;2023-08-12T11:08:27;29.00;99.90
9808;DHT22;4943;52.550;13.462;2023-08-12T11:10:56;29.00;99.90
9808;DHT22;4943;52.550;13.462;2023-08-12T11:13:27;29.10;99.90
9808;DHT22;4943;52.550;13.462;2023-08-12T11:16:06;29.10;99.90
9808;DHT22;4943;52.550;13.462;2023-08-12T11:18:35;29.10;99.90
9808;DHT22;4943;52.550;13.462;2023-08-12T11:21:05;29.00;99.90
9808;DHT22;4943;52.550;13.462;2023-08-12T11:23:33;29.00;99.90
9808;DHT22;4943;52.550;13.462;2023-08-12T11:26:03;29.00;99.90
9808;DHT22;4943;52.550;13.462;2023-08-12T11:28:31;29.10;99.90
9808;DHT22;4943;52.550;13.462;2023-08-12T11:30:59;29.20;99.90
9808;DHT22;4943;52.550;13.462;2023-08-12T11:33:29;29.30;99.90
9808;DHT22;4943;52.550;13.462;2023-08-12T11:35:58;29.40;99.90
9808;DHT22;4943;52.550;13.462;2023-08-12T11:38:28;29.40;99.90
9808;DHT22;4943;52.550;13.462;2023-08-12T11:40:56;29.40;99.90
9808;DHT22;4943;52.550;13.462;2023-08-12T11:43:24;29.50;99.90
9808;DHT22;4943;52.550;13.462;2023-08-12T11:45:55;29.50;99.90
9808;DHT22;4943;52.550;13.462;2023-08-12T11:48:23;29.50;99.90
9808;DHT22;4943;52.550;13.462;2023-08-12T11:50:52;29.40;99.90
9808;DHT22;4943;52.550;13.462;2023-08-12T11:53:20;29.20;99.90
9808;DHT22;4943;52.550;13.462;2023-08-12T11:55:50;29.00;99.90
9808;DHT22;4943;52.550;13.462;2023-08-12T11:58:18;28.90;99.90
9808;DHT22;4943;52.550;13.462;2023-08-12T12:00:47;28.80;99.90
9808;DHT22;4943;52.550;13.462;2023-08-12T12:03:17;28.60;99.90
9808;DHT22;4943;52.550;13.462;2023-08-12T12:05:46;28.50;99.90
9808;DHT22;4943;52.550;13.462;2023-08-12T12:08:15;28.40;99.90
9808;DHT22;4943;52.550;13.462;2023-08-12T12:10:44;28.40;99.90
9808;DHT22;4943;52.550;13.462;2023-08-12T12:13:13;28.50;99.90
9808;DHT22;4943;52.550;13.462;2023-08-12T12:15:42;28.50;99.90
9808;DHT22;4943;52.550;13.462;2023-08-12T12:18:11;28.60;99.90
9808;DHT22;4943;52.550;13.462;2023-08-12T12:20:53;28.70;99.90
9808;DHT22;4943;52.550;13.462;2023-08-12T12:23:21;28.90;99.90
9808;DHT22;4943;52.550;13.462;2023-08-12T12:25:57;28.90;99.90
9808;DHT22;4943;52.550;13.462;2023-08-12T12:28:26;29.00;99.90
9808;DHT22;4943;52.550;13.462;2023-08-12T12:30:55;28.90;99.90
9808;DHT22;4943;52.550;13.462;2023-08-12T12:33:23;28.80;99.90
9808;DHT22;4943;52.550;13.462;2023-08-12T12:35:51;28.70;99.90
9808;DHT22;4943;52.550;13.462;2023-08-12T12:38:24;28.70;99.90
9808;DHT22;4943;52.550;13.462;2023-08-12T12:40:52;28.60;99.90
9808;DHT22;4943;52.550;13.462;2023-08-12T12:43:20;28.60;99.90
9808;DHT22;4943;52.550;13.462;2023-08-12T12:45:50;28.40;99.90
9808;DHT22;4943;52.550;13.462;2023-08-12T12:48:18;28.30;99.90
9808;DHT22;4943;52.550;13.462;2023-08-12T12:50:46;28.20;99.90
9808;DHT22;4943;52.550;13.462;2023-08-12T12:53:14;28.10;99.90
9808;DHT22;4943;52.550;13.462;2023-08-12T12:55:42;28.10;99.90
9808;DHT22;4943;52.550;13.462;2023-08-12T12:58:11;28.20;99.90
9808;DHT22;4943;52.550;13.462;2023-08-12T13:00:39;28.40;99.90
9808;DHT22;4943;52.550;13.462;2023-08-12T13:03:09;28.60;99.90
9808;DHT22;4943;52.550;13.462;2023-08-12T13:05:37;28.90;99.90
9808;DHT22;4943;52.550;13.462;2023-08-12T13:08:06;29.00;99.90
9808;DHT22;4943;52.550;13.462;2023-08-12T13:10:34;29.20;99.90
9808;DHT22;4943;52.550;13.462;2023-08-12T13:13:03;29.40;99.90
9808;DHT22;4943;52.550;13.462;2023-08-12T13:15:31;29.50;99.90
9808;DHT22;4943;52.550;13.462;2023-08-12T13:18:01;29.60;99.90
9808;DHT22;4943;52.550;13.462;2023-08-12T13:20:31;29.70;99.90
9808;DHT22;4943;52.550;13.462;2023-08-12T13:22:59;29.90;99.90
9808;DHT22;4943;52.550;13.462;2023-08-12T13:25:29;30.10;99.90
9808;DHT22;4943;52.550;13.462;2023-08-12T13:27:58;30.30;99.90
9808;DHT22;4943;52.550;13.462;2023-08-12T13:30:27;30.50;99.90
9808;DHT22;4943;52.550;13.462;2023-08-12T13:32:55;30.60;99.90
9808;DHT22;4943;52.550;13.462;2023-08-12T13:35:27;30.60;99.90
9808;DHT22;4943;52.550;13.462;2023-08-12T13:37:57;30.70;99.90
9808;DHT22;4943;52.550;13.462;2023-08-12T13:40:25;30.80;99.90
9808;DHT22;4943;52.550;13.462;2023-08-12T13:42:53;31.00;99.90
9808;DHT22;4943;52.550;13.462;2023-08-12T13:45:21;31.10;99.90
9808;DHT22;4943;52.550;13.462;2023-08-12T13:47:50;31.10;99.90
9808;DHT22;4943;52.550;13.462;2023-08-12T13:50:19;31.20;99.90
9808;DHT22;4943;52.550;13.462;2023-08-12T13:52:48;31.20;99.90
9808;DHT22;4943;52.550;13.462;2023-08-12T13:55:18;31.20;99.90
9808;DHT22;4943;52.550;13.462;2023-08-12T13:57:46;31.20;99.90
9808;DHT22;4943;52.550;13.462;2023-08-12T14:00:15;31.30;99.90
9808;DHT22;4943;52.550;13.462;2023-08-12T14:02:43;31.30;99.90
9808;DHT22;4943;52.550;13.462;2023-08-12T14:05:13;31.30;99.90
9808;DHT22;4943;52.550;13.462;2023-08-12T14:07:41;31.30;99.90
9808;DHT22;4943;52.550;13.462;2023-08-12T14:10:09;31.20;99.90
9808;DHT22;4943;52.550;13.462;2023-08-12T14:12:38;31.20;99.90
9808;DHT22;4943;52.550;13.462;2023-08-12T14:15:07;31.10;99.90
9808;DHT22;4943;52.550;13.462;2023-08-12T14:17:35;31.10;99.90
9808;DHT22;4943;52.550;13.462;2023-08-12T14:20:04;31.00;99.90
9808;DHT22;4943;52.550;13.462;2023-08-12T14:22:34;31.00;99.90
9808;DHT22;4943;52.550;13.462;2023-08-12T14:25:03;31.10;99.90
9808;DHT22;4943;52.550;13.462;2023-08-12T14:27:32;31.20;99.90
9808;DHT22;4943;52.550;13.462;2023-08-12T14:30:02;31.30;99.90
9808;DHT22;4943;52.550;13.462;2023-08-12T14:32:30;31.30;99.90
9808;DHT22;4943;52.550;13.462;2023-08-12T14:34:58;31.40;99.90
9808;DHT22;4943;52.550;13.462;2023-08-12T14:37:26;31.40;99.90
9808;DHT22;4943;52.550;13.462;2023-08-12T14:39:55;31.50;99.90
9808;DHT22;4943;52.550;13.462;2023-08-12T14:42:23;31.50;99.90
9808;DHT22;4943;52.550;13.462;2023-08-12T14:44:51;31.60;99.90
9808;DHT22;4943;52.550;13.462;2023-08-12T14:47:21;31.50;99.90
9808;DHT22;4943;52.550;13.462;2023-08-12T14:49:49;31.50;99.90
9808;DHT22;4943;52.550;13.462;2023-08-12T14:52:20;31.40;99.90
9808;DHT22;4943;52.550;13.462;2023-08-12T14:54:49;31.40;99.90
9808;DHT22;4943;52.550;13.462;2023-08-12T14:57:17;31.30;99.90
9808;DHT22;4943;52.550;13.462;2023-08-12T14:59:45;31.30;99.90
9808;DHT22;4943;52.550;13.462;2023-08-12T15:02:19;31.30;99.90
9808;DHT22;4943;52.550;13.462;2023-08-12T15:04:49;31.30;99.90
9808;DHT22;4943;52.550;13.462;2023-08-12T15:07:17;31.30;99.90
9808;DHT22;4943;52.550;13.462;2023-08-12T15:09:47;31.30;99.90
9808;DHT22;4943;52.550;13.462;2023-08-12T15:12:15;31.40;99.90
9808;DHT22;4943;52.550;13.462;2023-08-12T15:14:43;31.50;99.90
9808;DHT22;4943;52.550;13.462;2023-08-12T15:17:11;31.50;99.90
9808;DHT22;4943;52.550;13.462;2023-08-12T15:19:39;31.40;99.90
9808;DHT22;4943;52.550;13.462;2023-08-12T15:22:11;31.40;99.90
9808;DHT22;4943;52.550;13.462;2023-08-12T15:24:39;31.20;99.80
9808;DHT22;4943;52.550;13.462;2023-08-12T15:27:07;31.00;99.80
9808;DHT22;4943;52.550;13.462;2023-08-12T15:29:35;30.90;99.80
9808;DHT22;4943;52.550;13.462;2023-08-12T15:32:04;30.70;99.90
9808;DHT22;4943;52.550;13.462;2023-08-12T15:34:32;30.60;99.90
9808;DHT22;4943;52.550;13.462;2023-08-12T15:37:00;30.50;99.90
9808;DHT22;4943;52.550;13.462;2023-08-12T15:39:31;30.40;99.90
9808;DHT22;4943;52.550;13.462;2023-08-12T15:42:00;30.40;99.90
9808;DHT22;4943;52.550;13.462;2023-08-12T15:44:29;30.30;99.90
9808;DHT22;4943;52.550;13.462;2023-08-12T15:46:57;30.40;99.90
9808;DHT22;4943;52.550;13.462;2023-08-12T15:49:25;30.40;99.90
9808;DHT22;4943;52.550;13.462;2023-08-12T15:51:53;30.40;99.90
9808;DHT22;4943;52.550;13.462;2023-08-12T15:54:22;30.40;99.90
9808;DHT22;4943;52.550;13.462;2023-08-12T15:56:51;30.50;99.90